Farmersburg, Indiana
Current Conditions -  °F | °C
As of 6:53 PM on Thursday 18 Dec 2014 (Local Time) from KHUF Reporting Station
Overcast Overcast  
Wind Chill: 25°   Ceiling: 10000
Heat Index: 30°   Visibility: 10mi
Dew Point: 21°   Wind: 5mph
Humidity: 69%   Direction: 360°N
Pressure: 30.25"   Gusts: NA
Location:  39.25°N, 87.38°W
Report Text: KHUF 182353Z 36004KT 10SM BKN100 OVC120 M01/M06 A3025 RMK AO2 SLP252 T10111061 11011 21017 53006
Loading
Personal Weather Stations






























Interactive Weather Map New forecast layout! Learn more

10-Day Weather Forecast

Advertisements
Track Severe Weather on mobile